Time;durP1;ratioP1;P1;durP2;ratioP2;P2;SDS_P1;SDS_P2;PMS_P1;PMS_P2;Temp;Humidity;BMP_temperature;BMP_pressure;BME280_temperature;BME280_humidity;BME280_pressure;Samples;Min_cycle;Max_cycle;Signal;HPM_P1;HPM_P2
2024/01/14 00:02:00;;;;;;;36.40;15.60;;;;;;;-7.16;73.34;95168.62;110585;1274;22579;-76
2024/01/14 00:04:28;;;;;;;32.70;16.10;;;;;;;-7.24;73.70;95162.15;110593;1274;22087;-76
2024/01/14 00:06:56;;;;;;;31.70;14.50;;;;;;;-7.29;73.78;95165.34;110585;1274;22120;-76
2024/01/14 00:09:24;;;;;;;20.30;9.60;;;;;;;-7.37;73.46;95161.41;110601;1274;22167;-75
2024/01/14 00:11:54;;;;;;;31.70;13.80;;;;;;;-7.51;74.59;95157.77;110615;1274;22187;-76
2024/01/14 00:14:22;;;;;;;21.90;10.30;;;;;;;-7.48;74.69;95159.73;110596;1274;22822;-76
2024/01/14 00:16:50;;;;;;;23.90;10.20;;;;;;;-7.48;74.02;95153.14;110597;1274;22895;-76
2024/01/14 00:19:18;;;;;;;19.40;8.50;;;;;;;-7.58;73.81;95156.61;110601;1274;22164;-76
2024/01/14 00:21:46;;;;;;;13.90;6.50;;;;;;;-7.56;74.16;95151.05;110591;1274;22127;-76
2024/01/14 00:24:15;;;;;;;14.00;7.10;;;;;;;-7.58;73.75;95139.52;110605;1274;22119;-76
2024/01/14 00:26:43;;;;;;;15.20;7.00;;;;;;;-7.65;74.40;95132.73;110597;1274;22399;-75
2024/01/14 00:29:11;;;;;;;27.40;11.40;;;;;;;-7.68;75.10;95139.08;110589;1274;22381;-76
2024/01/14 00:31:40;;;;;;;47.10;18.40;;;;;;;-7.64;74.97;95145.24;110516;1274;22164;-76
2024/01/14 00:34:08;;;;;;;35.20;14.50;;;;;;;-7.66;74.75;95148.39;110590;1274;22939;-75
2024/01/14 00:36:39;;;;;;;16.30;7.80;;;;;;;-7.68;74.83;95141.64;110603;1274;22947;-75
2024/01/14 00:39:08;;;;;;;16.10;7.70;;;;;;;-7.65;74.94;95139.38;110546;1274;22905;-76
2024/01/14 00:41:36;;;;;;;27.40;11.40;;;;;;;-7.71;74.47;95131.98;110637;1274;22147;-75
2024/01/14 00:44:04;;;;;;;18.50;7.80;;;;;;;-7.75;74.30;95127.86;110612;1274;22187;-76
2024/01/14 00:46:32;;;;;;;13.20;5.40;;;;;;;-7.74;74.67;95119.39;110624;1274;22303;-75
2024/01/14 00:49:00;;;;;;;13.20;5.60;;;;;;;-7.83;74.60;95122.57;110621;1274;22122;-75
2024/01/14 00:51:30;;;;;;;10.70;6.40;;;;;;;-7.81;75.45;95121.29;110548;1274;22145;-75
2024/01/14 00:53:59;;;;;;;23.40;10.70;;;;;;;-7.88;75.43;95122.52;110634;1274;22159;-75
2024/01/14 00:56:27;;;;;;;28.90;14.00;;;;;;;-7.90;75.46;95115.61;110555;1274;22195;-75
2024/01/14 00:58:55;;;;;;;25.60;12.10;;;;;;;-7.97;75.13;95116.30;110534;1274;22827;-76
2024/01/14 01:01:24;;;;;;;20.10;8.80;;;;;;;-8.08;75.04;95106.65;110525;1274;22126;-75
2024/01/14 01:03:52;;;;;;;22.60;11.00;;;;;;;-8.09;75.67;95106.44;110567;1274;22109;-75
2024/01/14 01:06:20;;;;;;;19.20;9.80;;;;;;;-8.08;75.63;95101.20;110620;1274;22131;-76
2024/01/14 01:08:48;;;;;;;23.20;10.10;;;;;;;-8.22;75.76;95099.02;110588;1274;22208;-75
2024/01/14 01:11:17;;;;;;;23.60;10.40;;;;;;;-8.25;76.19;95098.38;110614;1274;22151;-76
2024/01/14 01:13:45;;;;;;;36.90;15.90;;;;;;;-8.20;76.20;95099.92;110605;1274;22877;-76
2024/01/14 01:16:13;;;;;;;31.00;13.90;;;;;;;-8.23;76.07;95105.79;110627;1274;22119;-75
2024/01/14 01:18:41;;;;;;;28.90;13.20;;;;;;;-8.21;75.93;95098.56;110539;1274;22316;-76
2024/01/14 01:21:10;;;;;;;34.60;15.80;;;;;;;-8.19;75.81;95085.83;110611;1274;22948;-76
2024/01/14 01:23:38;;;;;;;24.30;10.70;;;;;;;-8.21;75.88;95081.45;110611;1274;22262;-76
2024/01/14 01:26:06;;;;;;;24.40;10.90;;;;;;;-8.26;75.63;95080.06;110629;1274;22245;-76
2024/01/14 01:28:34;;;;;;;32.60;14.90;;;;;;;-8.28;75.92;95076.58;110600;1274;22169;-75
2024/01/14 01:31:03;;;;;;;29.50;13.30;;;;;;;-8.26;76.03;95078.35;110606;1272;22763;-76
2024/01/14 01:33:31;;;;;;;23.60;10.50;;;;;;;-8.26;75.93;95072.05;110611;1274;23011;-76
2024/01/14 01:35:59;;;;;;;25.10;12.50;;;;;;;-8.33;74.92;95069.71;110596;1274;22294;-76
2024/01/14 01:38:27;;;;;;;33.20;14.80;;;;;;;-8.37;75.34;95063.05;110605;1274;22233;-76
2024/01/14 01:40:56;;;;;;;32.20;14.00;;;;;;;-8.41;75.90;95054.88;110616;1274;22150;-75
2024/01/14 01:43:24;;;;;;;27.20;12.90;;;;;;;-8.36;75.96;95049.29;110601;1274;22255;-75
2024/01/14 01:45:56;;;;;;;40.00;16.70;;;;;;;-8.34;75.76;95045.78;110594;1274;22208;-75
2024/01/14 01:48:24;;;;;;;38.30;16.40;;;;;;;-8.31;75.74;95050.01;110564;1274;22130;-75
2024/01/14 01:50:54;;;;;;;27.20;13.00;;;;;;;-8.35;75.33;95045.73;110580;1274;22223;-75
2024/01/14 01:53:25;;;;;;;19.40;8.60;;;;;;;-8.37;75.12;95043.08;110581;1275;22433;-76
2024/01/14 01:55:55;;;;;;;29.40;14.30;;;;;;;-8.50;75.13;95037.77;110628;1274;22123;-76
2024/01/14 01:58:23;;;;;;;15.90;7.40;;;;;;;-8.53;75.89;95032.52;110595;1274;22168;-76
2024/01/14 02:00:51;;;;;;;15.80;7.70;;;;;;;-8.52;75.74;95028.84;110616;1274;22418;-75
2024/01/14 02:03:21;;;;;;;15.00;7.30;;;;;;;-8.60;75.89;95028.44;110551;1274;23118;-75
2024/01/14 02:05:52;;;;;;;15.50;7.10;;;;;;;-8.63;76.41;95031.02;110590;1274;22108;-75
2024/01/14 02:08:20;;;;;;;13.30;6.60;;;;;;;-8.70;75.90;95033.30;110629;1274;22187;-75
2024/01/14 02:10:49;;;;;;;18.80;8.40;;;;;;;-8.73;75.84;95030.13;110534;1265;22810;-75
2024/01/14 02:13:17;;;;;;;20.60;9.20;;;;;;;-8.71;76.20;95030.86;110591;1274;22225;-75
2024/01/14 02:15:45;;;;;;;17.70;7.90;;;;;;;-8.70;76.36;95030.55;110613;1274;22254;-75
2024/01/14 02:18:13;;;;;;;21.70;9.30;;;;;;;-8.80;76.03;95033.05;110514;1274;22152;-76
2024/01/14 02:20:42;;;;;;;21.70;9.90;;;;;;;-8.89;75.98;95030.05;110556;1274;22115;-75
2024/01/14 02:23:16;;;;;;;18.20;6.90;;;;;;;-8.89;76.23;95031.73;110571;1275;22106;-76
2024/01/14 02:25:44;;;;;;;16.00;7.30;;;;;;;-8.90;76.45;95019.79;110558;1274;22111;-75
2024/01/14 02:28:14;;;;;;;12.60;6.30;;;;;;;-8.84;76.62;95008.48;110604;1256;22195;-75
2024/01/14 02:30:43;;;;;;;15.90;7.00;;;;;;;-8.82;76.60;95014.87;110604;1274;22207;-75
2024/01/14 02:33:12;;;;;;;16.60;7.40;;;;;;;-8.84;76.46;95011.87;110585;1274;22132;-75
2024/01/14 02:35:42;;;;;;;20.90;9.60;;;;;;;-8.85;76.86;95010.96;110533;1272;22188;-75
2024/01/14 02:38:11;;;;;;;28.80;14.40;;;;;;;-8.87;76.97;95013.08;110611;1272;22152;-75
2024/01/14 02:40:39;;;;;;;21.10;11.60;;;;;;;-8.90;76.53;95019.10;110588;1274;22897;-75
2024/01/14 02:43:08;;;;;;;26.10;12.80;;;;;;;-8.95;76.65;95022.46;110623;1274;22235;-76
2024/01/14 02:45:36;;;;;;;25.40;12.00;;;;;;;-8.96;76.76;95015.79;110542;1275;22851;-76
2024/01/14 02:48:04;;;;;;;25.80;12.90;;;;;;;-8.96;76.70;95014.03;110593;1274;22139;-76
2024/01/14 02:50:34;;;;;;;24.80;11.60;;;;;;;-8.93;77.23;95007.88;110622;1274;22841;-76
2024/01/14 02:53:02;;;;;;;21.10;10.50;;;;;;;-8.87;77.35;95003.55;110578;1274;22308;-75
2024/01/14 02:55:30;;;;;;;23.00;11.00;;;;;;;-8.82;76.97;94998.16;110580;1274;22135;-75
2024/01/14 02:57:59;;;;;;;18.10;9.50;;;;;;;-8.88;76.48;94994.66;110613;1274;22151;-76
2024/01/14 03:00:27;;;;;;;21.70;10.60;;;;;;;-8.93;76.27;94985.23;110572;1274;22936;-75
2024/01/14 03:02:56;;;;;;;22.00;10.50;;;;;;;-8.99;76.68;94973.88;110595;1274;22641;-75
2024/01/14 03:05:24;;;;;;;19.40;10.00;;;;;;;-9.05;76.33;94976.52;110577;1274;22883;-75
2024/01/14 03:07:52;;;;;;;18.90;10.30;;;;;;;-9.04;76.43;94975.36;110558;1274;22119;-76
2024/01/14 03:10:20;;;;;;;26.10;11.90;;;;;;;-9.09;76.81;94969.83;110586;1274;22204;-75
2024/01/14 03:12:49;;;;;;;24.30;11.20;;;;;;;-9.02;77.35;94966.76;110615;1274;22712;-75
2024/01/14 03:15:17;;;;;;;21.20;9.60;;;;;;;-8.98;76.63;94960.28;110609;1274;22122;-76
2024/01/14 03:17:45;;;;;;;21.50;10.50;;;;;;;-9.04;76.37;94959.00;110607;1274;22876;-76
2024/01/14 03:20:13;;;;;;;23.20;12.20;;;;;;;-9.01;76.65;94951.48;110601;1274;22095;-75
2024/01/14 03:22:41;;;;;;;19.50;10.10;;;;;;;-9.00;76.81;94947.44;110612;1272;22857;-76
2024/01/14 03:25:09;;;;;;;24.40;10.80;;;;;;;-9.05;76.36;94942.96;110611;1274;22188;-76
2024/01/14 03:27:37;;;;;;;23.20;11.80;;;;;;;-9.05;76.46;94946.30;110622;1274;22381;-75
2024/01/14 03:30:06;;;;;;;21.60;10.80;;;;;;;-9.02;76.62;94946.84;110570;1274;22132;-75
2024/01/14 03:32:35;;;;;;;22.80;11.70;;;;;;;-8.99;76.55;94943.74;110541;1274;22134;-76
2024/01/14 03:35:03;;;;;;;24.80;12.30;;;;;;;-8.96;76.89;94939.23;110551;1274;22265;-75
2024/01/14 03:37:32;;;;;;;33.50;14.60;;;;;;;-8.92;76.64;94934.66;110579;1274;22114;-76
2024/01/14 03:40:01;;;;;;;27.10;12.40;;;;;;;-8.97;76.47;94934.79;110612;1274;22134;-76
2024/01/14 03:42:29;;;;;;;30.40;14.20;;;;;;;-9.11;76.30;94926.33;110609;1274;22809;-75
2024/01/14 03:44:57;;;;;;;30.00;13.90;;;;;;;-9.07;76.53;94926.83;110510;1274;22147;-75
2024/01/14 03:47:26;;;;;;;27.40;12.60;;;;;;;-9.06;76.52;94921.23;110601;1274;22136;-76
2024/01/14 03:49:54;;;;;;;27.10;11.70;;;;;;;-9.07;76.91;94917.78;110602;1274;22170;-76
2024/01/14 03:52:22;;;;;;;33.70;14.90;;;;;;;-9.04;76.55;94914.86;110595;1274;22157;-75
2024/01/14 03:54:52;;;;;;;30.20;12.00;;;;;;;-8.96;76.92;94910.28;110604;1274;22269;-75
2024/01/14 03:57:20;;;;;;;24.30;11.90;;;;;;;-8.97;76.71;94915.54;110553;1274;22143;-76
2024/01/14 03:59:48;;;;;;;22.70;11.50;;;;;;;-8.99;76.58;94911.70;110499;1274;22157;-76
2024/01/14 04:02:17;;;;;;;25.80;11.60;;;;;;;-9.06;77.23;94913.08;110519;1274;22967;-75
2024/01/14 04:04:45;;;;;;;25.30;12.10;;;;;;;-9.00;77.36;94915.23;110604;1274;22141;-76
2024/01/14 04:07:13;;;;;;;24.30;9.90;;;;;;;-8.93;77.32;94901.56;110592;1274;22089;-76
2024/01/14 04:09:41;;;;;;;23.20;11.70;;;;;;;-8.93;76.63;94898.31;110532;1274;22843;-75
2024/01/14 04:12:09;;;;;;;23.80;9.90;;;;;;;-8.89;76.93;94892.16;110568;1274;22246;-75
2024/01/14 04:14:38;;;;;;;20.70;10.80;;;;;;;-8.88;76.78;94890.34;110583;1274;22129;-75
2024/01/14 04:17:06;;;;;;;19.70;10.10;;;;;;;-8.86;76.65;94891.95;110523;1271;22145;-75
2024/01/14 04:19:35;;;;;;;23.90;10.40;;;;;;;-8.88;76.84;94891.36;110591;1274;22185;-76
2024/01/14 04:22:03;;;;;;;20.40;9.20;;;;;;;-8.83;76.83;94895.68;110595;1274;22146;-75
2024/01/14 04:24:31;;;;;;;17.40;8.00;;;;;;;-8.86;76.67;94881.90;110623;1274;22136;-75
2024/01/14 04:27:00;;;;;;;24.70;11.20;;;;;;;-8.96;76.20;94874.66;110599;1274;22137;-76
2024/01/14 04:29:28;;;;;;;20.40;8.70;;;;;;;-8.96;76.24;94885.77;110617;1274;22302;-75
2024/01/14 04:31:56;;;;;;;16.20;7.80;;;;;;;-8.96;76.74;94880.95;110537;1274;22228;-75
2024/01/14 04:34:24;;;;;;;19.80;8.90;;;;;;;-9.00;76.51;94879.59;110627;1275;22211;-76
2024/01/14 04:36:52;;;;;;;15.30;7.10;;;;;;;-9.08;76.45;94872.78;110582;1274;22794;-76
2024/01/14 04:39:21;;;;;;;24.20;11.60;;;;;;;-9.15;76.90;94861.25;110615;1275;22158;-76
2024/01/14 04:41:49;;;;;;;30.20;16.50;;;;;;;-9.12;77.34;94871.07;110509;1274;22137;-75
2024/01/14 04:44:17;;;;;;;32.00;15.10;;;;;;;-9.09;77.51;94862.02;110605;1275;22199;-75
2024/01/14 04:46:45;;;;;;;43.50;21.70;;;;;;;-9.08;77.38;94847.24;110594;1274;22984;-75
2024/01/14 04:49:13;;;;;;;41.50;18.60;;;;;;;-9.08;77.05;94844.86;110585;1274;22119;-75
2024/01/14 04:51:42;;;;;;;39.60;19.50;;;;;;;-9.03;77.40;94849.17;110532;1275;22110;-76
2024/01/14 04:54:11;;;;;;;44.70;22.20;;;;;;;-9.05;77.39;94839.02;110599;1274;22115;-76
2024/01/14 04:56:40;;;;;;;44.20;21.00;;;;;;;-9.06;77.35;94839.49;110563;1274;22779;-76
2024/01/14 04:59:08;;;;;;;38.50;17.60;;;;;;;-9.00;77.61;94838.70;110607;1274;22163;-76
2024/01/14 05:01:36;;;;;;;39.00;17.70;;;;;;;-8.96;77.46;94834.13;110607;1274;22148;-76
2024/01/14 05:04:04;;;;;;;32.40;16.20;;;;;;;-8.94;77.35;94832.32;110575;1274;22130;-75
2024/01/14 05:06:34;;;;;;;21.80;11.00;;;;;;;-8.87;77.52;94825.98;110587;1274;22522;-75
2024/01/14 05:09:03;;;;;;;33.10;15.10;;;;;;;-8.83;76.96;94839.27;110557;1274;22202;-75
2024/01/14 05:11:32;;;;;;;33.70;16.40;;;;;;;-8.80;77.03;94831.54;110595;1274;22276;-76
2024/01/14 05:14:00;;;;;;;31.50;16.50;;;;;;;-8.81;76.90;94817.87;110548;1274;22119;-76
2024/01/14 05:16:28;;;;;;;56.20;27.30;;;;;;;-8.84;76.95;94818.27;110529;1274;22909;-76
2024/01/14 05:18:56;;;;;;;40.80;17.80;;;;;;;-8.81;77.01;94816.85;110583;1275;22875;-76
2024/01/14 05:21:25;;;;;;;62.10;29.50;;;;;;;-8.85;77.49;94811.41;110606;1274;22447;-75
2024/01/14 05:23:54;;;;;;;40.80;19.30;;;;;;;-8.82;78.34;94803.50;110563;1274;22487;-76
2024/01/14 05:26:24;;;;;;;38.40;16.80;;;;;;;-8.78;78.08;94816.48;110595;1275;23111;-75
2024/01/14 05:28:55;;;;;;;26.80;12.70;;;;;;;-8.67;78.22;94818.80;110515;1274;22138;-75
2024/01/14 05:31:23;;;;;;;33.60;17.20;;;;;;;-8.52;78.59;94813.45;110564;1274;22820;-76
2024/01/14 05:33:51;;;;;;;64.30;27.90;;;;;;;-8.51;77.65;94803.43;110523;1274;22164;-75
2024/01/14 05:36:19;;;;;;;63.20;27.90;;;;;;;-8.51;77.51;94806.67;110603;1275;22121;-75
2024/01/14 05:38:48;;;;;;;59.40;27.60;;;;;;;-8.47;77.78;94810.56;110613;1274;22129;-76
2024/01/14 05:41:16;;;;;;;61.30;28.20;;;;;;;-8.49;77.46;94807.08;110597;1273;22184;-75
2024/01/14 05:43:44;;;;;;;101.10;43.30;;;;;;;-8.49;77.49;94788.48;110163;1274;581266;-75
2024/01/14 05:46:12;;;;;;;52.60;24.10;;;;;;;-8.44;77.44;94790.91;110622;1274;22139;-76
2024/01/14 05:48:41;;;;;;;56.00;22.20;;;;;;;-8.33;77.81;94793.04;110502;1274;22126;-76
2024/01/14 05:51:09;;;;;;;34.80;16.50;;;;;;;-8.23;78.09;94794.45;110547;1274;22114;-76
2024/01/14 05:53:38;;;;;;;46.30;20.40;;;;;;;-8.19;77.93;94804.49;110596;1274;22178;-75
2024/01/14 05:56:10;;;;;;;70.30;28.80;;;;;;;-8.12;78.01;94810.07;110537;1274;22115;-76
2024/01/14 05:58:41;;;;;;;82.40;31.40;;;;;;;-8.08;77.72;94810.89;110630;1275;22170;-75
2024/01/14 06:01:10;;;;;;;38.80;17.90;;;;;;;-8.04;77.68;94807.45;110585;1274;22125;-76
2024/01/14 06:03:38;;;;;;;45.10;20.00;;;;;;;-7.97;77.68;94798.36;110504;1274;22141;-75
2024/01/14 06:06:06;;;;;;;61.60;24.40;;;;;;;-7.90;78.04;94810.91;110523;1274;22929;-76
2024/01/14 06:08:36;;;;;;;50.80;22.20;;;;;;;-7.85;77.79;94812.14;110591;1274;22154;-75
2024/01/14 06:11:04;;;;;;;45.00;18.70;;;;;;;-7.89;77.27;94818.80;110610;1274;22193;-76
2024/01/14 06:13:32;;;;;;;42.20;20.30;;;;;;;-7.87;77.47;94815.79;110597;1274;22838;-75
2024/01/14 06:16:01;;;;;;;32.90;15.70;;;;;;;-7.88;77.24;94808.79;110582;1274;22112;-76
2024/01/14 06:18:29;;;;;;;25.40;12.30;;;;;;;-7.93;76.77;94813.70;110561;1274;23036;-75
2024/01/14 06:21:00;;;;;;;34.80;15.40;;;;;;;-7.97;76.73;94815.42;110523;1275;22288;-76
2024/01/14 06:23:29;;;;;;;35.80;16.60;;;;;;;-7.97;76.90;94812.53;110534;1274;22113;-76
2024/01/14 06:25:57;;;;;;;34.00;16.70;;;;;;;-7.93;77.26;94820.02;110609;1274;22841;-75
2024/01/14 06:28:26;;;;;;;39.30;19.60;;;;;;;-7.87;76.94;94820.23;110515;1275;22315;-76
2024/01/14 06:30:54;;;;;;;39.40;20.00;;;;;;;-7.81;77.43;94814.48;110531;1274;22898;-76
2024/01/14 06:33:22;;;;;;;35.30;16.70;;;;;;;-7.69;77.51;94809.48;110588;1274;22871;-75
2024/01/14 06:35:51;;;;;;;35.40;15.40;;;;;;;-7.57;77.53;94824.27;110619;1275;22217;-75
2024/01/14 06:38:19;;;;;;;33.40;14.80;;;;;;;-7.50;77.10;94823.69;110611;1274;22144;-76
2024/01/14 06:40:47;;;;;;;32.40;14.70;;;;;;;-7.47;76.85;94816.95;110593;1274;22922;-76
2024/01/14 06:43:33;;;;;;;26.70;12.80;;;;;;;-7.46;76.80;94803.68;110581;1274;22975;-76
2024/01/14 06:46:02;;;;;;;29.80;14.80;;;;;;;-7.42;76.77;94801.63;110573;1275;22746;-76
2024/01/14 06:48:30;;;;;;;30.90;14.40;;;;;;;-7.35;76.98;94800.83;110597;1274;23106;-75
2024/01/14 06:51:00;;;;;;;31.50;13.10;;;;;;;-7.33;77.20;94808.59;110600;1275;22759;-76
2024/01/14 06:53:28;;;;;;;35.10;16.10;;;;;;;-7.31;77.22;94806.98;110581;1275;22129;-75
2024/01/14 06:55:57;;;;;;;42.20;18.00;;;;;;;-7.20;77.14;94810.77;110600;1275;22151;-76
2024/01/14 06:58:25;;;;;;;44.20;19.50;;;;;;;-7.17;76.71;94814.12;110581;1275;22866;-76
2024/01/14 07:00:53;;;;;;;47.00;21.40;;;;;;;-7.11;77.05;94816.21;110581;1274;23147;-76
2024/01/14 07:03:21;;;;;;;42.90;19.90;;;;;;;-6.97;77.12;94819.27;110526;1274;22118;-75
2024/01/14 07:05:50;;;;;;;41.40;18.60;;;;;;;-6.92;76.91;94805.59;110560;1275;22147;-76
2024/01/14 07:08:18;;;;;;;39.00;18.50;;;;;;;-6.87;77.19;94804.38;110551;1274;22224;-76
2024/01/14 07:10:46;;;;;;;41.70;20.30;;;;;;;-6.78;77.09;94797.89;110605;1274;22132;-75
2024/01/14 07:13:14;;;;;;;59.30;28.20;;;;;;;-6.66;77.15;94796.39;110531;1274;22108;-76
2024/01/14 07:15:42;;;;;;;111.70;37.60;;;;;;;-6.56;76.63;94801.70;110619;1274;22105;-76
2024/01/14 07:18:11;;;;;;;32.50;15.50;;;;;;;-6.49;76.76;94793.55;110596;1275;22373;-75
2024/01/14 07:20:42;;;;;;;246.20;88.30;;;;;;;-6.34;76.64;94792.69;110621;1274;22130;-75
2024/01/14 07:23:11;;;;;;;35.00;15.90;;;;;;;-6.28;76.39;94782.25;110590;1274;22111;-75
2024/01/14 07:25:59;;;;;;;28.00;11.60;;;;;;;-6.16;76.30;94778.35;110615;1274;22141;-76
2024/01/14 07:28:27;;;;;;;53.80;31.90;;;;;;;-6.10;76.01;94780.77;110604;1275;22821;-75
2024/01/14 07:30:56;;;;;;;25.10;11.80;;;;;;;-6.04;76.05;94792.06;110564;1274;22151;-76
2024/01/14 07:33:24;;;;;;;22.70;12.20;;;;;;;-5.89;76.20;94781.55;110522;1275;22309;-76
2024/01/14 07:35:52;;;;;;;26.60;14.80;;;;;;;-5.82;75.43;94783.46;110532;1274;22137;-76
2024/01/14 07:38:21;;;;;;;30.90;14.60;;;;;;;-5.81;75.21;94786.74;110589;1274;22829;-76
2024/01/14 07:40:49;;;;;;;35.10;17.60;;;;;;;-5.68;75.70;94788.70;110528;1275;22111;-76
2024/01/14 07:43:17;;;;;;;31.20;16.10;;;;;;;-5.51;75.80;94778.73;110587;1274;22955;-76
2024/01/14 07:45:45;;;;;;;43.80;20.90;;;;;;;-5.35;75.55;94780.55;110632;1263;22140;-76
2024/01/14 07:48:13;;;;;;;46.50;22.40;;;;;;;-5.12;75.82;94778.48;110521;1275;22149;-75
2024/01/14 07:50:42;;;;;;;62.50;28.10;;;;;;;-4.79;75.91;94770.95;110562;1274;22120;-76
2024/01/14 07:53:10;;;;;;;69.70;29.70;;;;;;;-4.52;74.70;94759.29;110530;1274;22812;-75
2024/01/14 07:55:38;;;;;;;55.20;24.10;;;;;;;-4.32;73.69;94761.86;110597;1274;22195;-75
2024/01/14 07:58:06;;;;;;;40.30;18.30;;;;;;;-4.11;74.06;94762.88;110618;1274;22174;-76
2024/01/14 08:00:34;;;;;;;28.00;13.70;;;;;;;-3.97;72.98;94765.95;110617;1274;22121;-76
2024/01/14 08:03:04;;;;;;;27.10;12.70;;;;;;;-3.80;72.87;94759.98;110619;1274;22140;-75
2024/01/14 08:05:35;;;;;;;24.20;12.60;;;;;;;-3.61;72.63;94766.08;110558;1274;22131;-76
2024/01/14 08:08:04;;;;;;;22.30;11.30;;;;;;;-3.63;70.63;94769.98;110577;1274;22717;-76
2024/01/14 08:10:33;;;;;;;26.50;13.50;;;;;;;-3.70;70.40;94772.58;110600;1274;22134;-76
2024/01/14 08:13:01;;;;;;;24.10;11.90;;;;;;;-3.63;70.94;94774.27;110550;1274;22184;-76
2024/01/14 08:15:29;;;;;;;24.60;11.90;;;;;;;-3.63;70.42;94775.64;110586;1274;22156;-76
2024/01/14 08:18:01;;;;;;;23.40;12.40;;;;;;;-3.59;70.95;94773.35;110612;1274;22208;-75
2024/01/14 08:20:34;;;;;;;25.80;12.20;;;;;;;-3.40;70.70;94775.27;110539;1274;22923;-76
2024/01/14 08:23:02;;;;;;;25.30;11.60;;;;;;;-3.24;70.94;94779.58;110634;1274;22219;-76
2024/01/14 08:25:30;;;;;;;25.50;11.10;;;;;;;-3.12;70.70;94772.44;110608;1274;22123;-76
2024/01/14 08:27:59;;;;;;;20.10;10.30;;;;;;;-3.08;69.83;94779.05;110598;1274;22387;-76
2024/01/14 08:30:27;;;;;;;22.80;10.90;;;;;;;-3.09;68.87;94772.14;110615;1274;22375;-76
2024/01/14 08:32:55;;;;;;;23.50;11.60;;;;;;;-3.10;68.36;94782.45;110609;1274;23131;-76
2024/01/14 08:35:24;;;;;;;20.90;11.10;;;;;;;-2.91;69.47;94786.62;110615;1274;22171;-76
2024/01/14 08:37:52;;;;;;;23.00;11.40;;;;;;;-2.69;68.92;94787.54;110543;1274;22794;-75
2024/01/14 08:40:20;;;;;;;21.00;10.70;;;;;;;-2.57;67.91;94789.16;110594;1260;22284;-76
2024/01/14 08:42:48;;;;;;;22.90;11.00;;;;;;;-2.55;67.50;94782.14;110611;1267;22144;-76
2024/01/14 08:45:17;;;;;;;21.30;11.50;;;;;;;-2.54;67.82;94783.01;110591;1274;22855;-76
2024/01/14 08:47:45;;;;;;;20.20;11.20;;;;;;;-2.47;67.70;94787.45;110608;1274;22140;-76
2024/01/14 08:50:13;;;;;;;25.60;12.90;;;;;;;-2.45;67.19;94784.05;110531;1274;22148;-76
2024/01/14 08:52:41;;;;;;;28.10;14.80;;;;;;;-2.47;67.28;94783.65;110595;1274;22128;-76
2024/01/14 08:55:09;;;;;;;29.90;15.50;;;;;;;-2.42;67.51;94782.19;110610;1274;22112;-76
2024/01/14 08:57:39;;;;;;;30.80;14.80;;;;;;;-2.36;67.79;94775.74;110599;1274;22120;-76
2024/01/14 09:00:08;;;;;;;33.50;15.30;;;;;;;-2.28;67.89;94773.99;110563;1274;22826;-76
2024/01/14 09:02:37;;;;;;;31.80;16.70;;;;;;;-2.25;67.71;94773.71;110614;1274;22139;-76
2024/01/14 09:05:06;;;;;;;26.80;14.00;;;;;;;-2.25;67.94;94770.77;110604;1274;22288;-76
2024/01/14 09:07:34;;;;;;;26.80;14.20;;;;;;;-2.23;68.28;94768.41;110612;1274;22359;-76
2024/01/14 09:10:03;;;;;;;28.80;14.20;;;;;;;-2.21;68.27;94767.06;110537;1274;22604;-76
2024/01/14 09:12:31;;;;;;;26.40;12.80;;;;;;;-2.25;68.63;94761.13;110557;1274;22223;-76
2024/01/14 09:14:59;;;;;;;27.00;13.00;;;;;;;-2.25;68.93;94756.81;110606;1274;22249;-75
2024/01/14 09:17:27;;;;;;;20.70;10.90;;;;;;;-2.19;68.95;94765.02;110582;1274;22198;-76
2024/01/14 09:19:56;;;;;;;16.20;9.80;;;;;;;-2.11;69.04;94759.98;110567;1274;22275;-76
2024/01/14 09:22:24;;;;;;;20.70;9.90;;;;;;;-1.99;69.03;94760.67;110606;1274;22263;-76
2024/01/14 09:24:52;;;;;;;21.10;11.00;;;;;;;-1.98;68.59;94754.67;110537;1274;22912;-76
2024/01/14 09:27:20;;;;;;;20.20;10.50;;;;;;;-2.09;68.62;94752.76;110626;1274;22125;-76
2024/01/14 09:29:49;;;;;;;18.20;10.20;;;;;;;-2.17;68.77;94755.04;110640;1274;22146;-76
2024/01/14 09:32:17;;;;;;;19.80;10.80;;;;;;;-2.20;68.95;94756.91;110604;1274;22448;-76
2024/01/14 09:34:45;;;;;;;20.30;10.90;;;;;;;-2.20;69.21;94755.52;110511;1274;22221;-76
2024/01/14 09:37:13;;;;;;;20.10;10.60;;;;;;;-2.12;69.04;94755.30;110537;1274;22146;-76
2024/01/14 09:39:42;;;;;;;21.50;11.70;;;;;;;-1.99;69.00;94759.83;110577;1274;22112;-76
2024/01/14 09:42:19;;;;;;;18.00;10.10;;;;;;;-1.94;68.73;94759.39;110607;1274;22157;-76
2024/01/14 09:44:47;;;;;;;18.70;9.50;;;;;;;-1.98;68.84;94760.86;110524;1274;22210;-76
2024/01/14 09:47:17;;;;;;;20.90;9.40;;;;;;;-1.94;69.27;94759.73;110627;1274;22111;-76
2024/01/14 09:49:45;;;;;;;21.20;11.40;;;;;;;-1.82;69.07;94759.23;110523;1274;23067;-76
2024/01/14 09:52:13;;;;;;;19.40;10.40;;;;;;;-1.76;68.72;94755.86;110613;1260;22134;-76
2024/01/14 09:54:42;;;;;;;17.90;10.40;;;;;;;-1.69;68.64;94743.20;110595;1274;23012;-77
2024/01/14 09:57:15;;;;;;;21.70;11.60;;;;;;;-1.58;68.76;94736.65;110511;1274;22870;-76
2024/01/14 09:59:43;;;;;;;19.60;10.10;;;;;;;-1.45;68.80;94729.58;110554;1274;22127;-76
2024/01/14 10:02:12;;;;;;;18.00;9.00;;;;;;;-1.28;68.63;94737.55;110599;1274;22109;-77
2024/01/14 10:04:42;;;;;;;16.70;9.70;;;;;;;-1.15;68.23;94729.60;110534;1274;22195;-77
2024/01/14 10:07:11;;;;;;;16.80;9.40;;;;;;;-1.01;68.22;94725.27;110606;1274;22166;-77
2024/01/14 10:09:42;;;;;;;17.20;9.00;;;;;;;-0.90;67.60;94721.27;110545;1274;22131;-76
2024/01/14 10:12:11;;;;;;;21.30;11.00;;;;;;;-0.79;67.29;94724.49;110602;1274;22093;-77
2024/01/14 10:14:41;;;;;;;19.30;10.40;;;;;;;-0.68;66.93;94718.05;110533;1274;22136;-77
2024/01/14 10:17:13;;;;;;;14.40;8.10;;;;;;;-0.60;65.97;94718.30;110633;1274;22341;-77
2024/01/14 10:19:41;;;;;;;17.30;9.50;;;;;;;-0.55;65.98;94715.94;110627;1274;22128;-76
2024/01/14 10:22:10;;;;;;;17.80;9.70;;;;;;;-0.48;65.77;94714.44;110540;1274;22177;-76
2024/01/14 10:24:52;;;;;;;21.10;11.00;;;;;;;-0.40;65.46;94711.77;110571;1274;22780;-76
2024/01/14 10:27:25;;;;;;;16.20;9.80;;;;;;;-0.50;64.87;94710.45;110575;1274;22184;-76
2024/01/14 10:30:12;;;;;;;18.00;10.30;;;;;;;-0.40;65.22;94710.71;110570;1274;22242;-77
2024/01/14 10:32:43;;;;;;;22.50;12.40;;;;;;;-0.37;64.39;94707.64;110556;1274;22146;-77
2024/01/14 10:35:31;;;;;;;19.70;11.60;;;;;;;-0.31;64.37;94707.69;110601;1274;22216;-77
2024/01/14 10:38:01;;;;;;;12.70;7.50;;;;;;;-0.21;64.82;94700.34;110582;1274;22225;-77
2024/01/14 10:40:30;;;;;;;20.10;10.90;;;;;;;-0.20;64.04;94699.30;110606;1274;22840;-77
2024/01/14 10:42:58;;;;;;;16.00;8.50;;;;;;;-0.17;63.57;94700.73;110630;1274;22110;-77
2024/01/14 10:45:28;;;;;;;21.80;11.20;;;;;;;-0.12;63.75;94697.29;110541;1274;22110;-77
2024/01/14 10:48:04;;;;;;;19.70;11.20;;;;;;;-0.06;63.64;94690.25;110553;1274;22210;-76
2024/01/14 10:50:33;;;;;;;13.30;7.60;;;;;;;-0.08;63.64;94696.98;110607;1274;22196;-77
2024/01/14 10:53:30;;;;;;;15.70;8.50;;;;;;;-0.02;63.71;94694.79;110600;1274;22881;-77
2024/01/14 10:56:03;;;;;;;15.20;7.80;;;;;;;-0.02;63.32;94692.02;110435;1274;22270;-77
2024/01/14 10:58:35;;;;;;;14.90;8.80;;;;;;;-0.01;63.23;94685.63;110549;1263;22283;-77
2024/01/14 11:01:11;;;;;;;13.80;8.30;;;;;;;-0.03;63.69;94687.17;110590;1274;22172;-77
2024/01/14 11:03:40;;;;;;;11.20;7.50;;;;;;;0.01;63.47;94682.70;110568;1274;23096;-77
2024/01/14 11:06:11;;;;;;;16.90;9.90;;;;;;;0.08;63.80;94674.98;110566;1274;22915;-77
2024/01/14 11:08:40;;;;;;;15.90;9.00;;;;;;;0.15;63.69;94671.73;110618;1274;22826;-77
2024/01/14 11:11:09;;;;;;;14.70;7.30;;;;;;;0.22;63.49;94671.95;110628;1274;22298;-76
2024/01/14 11:13:47;;;;;;;10.70;5.60;;;;;;;0.31;63.09;94666.11;110483;1274;22435;-76
2024/01/14 11:16:28;;;;;;;13.30;5.20;;;;;;;0.36;62.31;94665.11;110598;1260;22168;-77
2024/01/14 11:19:03;;;;;;;15.50;7.00;;;;;;;0.55;62.42;94662.09;110535;1274;22364;-77
2024/01/14 11:22:03;;;;;;;10.10;5.00;;;;;;;0.70;61.89;94665.45;110555;1274;22636;-77